createdAt,value
2017-08-11T00:00:46.062Z,53.39
2017-08-11T00:02:39.054Z,53.59
2017-08-11T00:03:39.062Z,53.56
2017-08-11T00:05:32.022Z,53.49
2017-08-11T00:06:32.062Z,53.69
2017-08-11T00:08:25.062Z,53.66
2017-08-11T00:09:25.055Z,53.69
2017-08-11T00:11:18.014Z,53.37
2017-08-11T00:12:18.054Z,53.39
2017-08-11T00:14:11.062Z,53.75
2017-08-11T00:15:11.046Z,53.56
2017-08-11T00:17:04.006Z,53.39
2017-08-11T00:18:04.046Z,53.66
2017-08-11T00:19:57.038Z,53.69
2017-08-11T00:20:57.047Z,53.37
2017-08-11T00:22:50.063Z,53.37
2017-08-11T00:23:50.046Z,53.85
2017-08-11T00:25:43.000Z,53.30
2017-08-11T00:26:43.136Z,53.47
2017-08-11T00:28:36.033Z,53.56
2017-08-11T00:29:36.047Z,53.56
2017-08-11T00:31:29.007Z,53.37
2017-08-11T00:32:29.039Z,53.56
2017-08-11T00:34:22.031Z,53.66
2017-08-11T00:35:22.040Z,53.56
2017-08-11T00:37:15.001Z,53.30
2017-08-11T00:38:15.032Z,53.39
2017-08-11T00:40:08.024Z,53.47
2017-08-11T00:41:08.032Z,53.47
2017-08-11T00:43:01.016Z,53.47
2017-08-11T00:44:01.024Z,53.85
2017-08-11T00:45:54.043Z,53.69
2017-08-11T00:46:54.018Z,53.27
2017-08-11T00:48:46.984Z,53.47
2017-08-11T00:49:47.024Z,53.47
2017-08-11T00:51:40.008Z,53.37
2017-08-11T00:52:40.016Z,53.37
2017-08-11T00:54:33.040Z,53.47
2017-08-11T00:55:33.024Z,53.27
2017-08-11T00:57:25.984Z,53.37
2017-08-11T00:58:26.016Z,53.56
2017-08-11T01:00:19.002Z,53.47
2017-08-11T01:01:19.016Z,53.37
2017-08-11T01:03:11.976Z,53.47
2017-08-11T01:04:12.009Z,53.47
2017-08-11T01:06:05.001Z,53.47
2017-08-11T01:07:05.008Z,53.47
2017-08-11T01:08:58.016Z,53.37
2017-08-11T01:09:58.009Z,53.37
2017-08-11T01:11:51.001Z,53.37
2017-08-11T01:12:51.008Z,53.75
2017-08-11T01:14:43.977Z,53.37
2017-08-11T01:15:44.001Z,53.37
2017-08-11T01:17:37.027Z,53.37
2017-08-11T01:18:37.017Z,53.47
2017-08-11T01:20:29.977Z,53.37
2017-08-11T01:21:30.018Z,53.47
2017-08-11T01:23:23.034Z,53.08
2017-08-11T01:24:23.010Z,53.37
2017-08-11T01:26:15.993Z,53.47
2017-08-11T01:27:16.027Z,53.47
2017-08-11T01:29:09.034Z,53.37
2017-08-11T01:30:09.025Z,53.37
2017-08-11T01:32:01.986Z,53.08
2017-08-11T01:33:02.018Z,53.75
2017-08-11T01:34:55.034Z,53.75
2017-08-11T01:35:55.018Z,53.37
2017-08-11T01:37:47.986Z,53.08
2017-08-11T01:38:48.018Z,53.37
2017-08-11T01:40:41.018Z,53.66
2017-08-11T01:41:41.018Z,53.37
2017-08-11T01:43:34.010Z,53.47
2017-08-11T01:44:34.011Z,53.37
2017-08-11T01:46:26.970Z,53.47
2017-08-11T01:47:27.010Z,53.75
2017-08-11T01:49:19.994Z,53.85
2017-08-11T01:50:20.002Z,53.47
2017-08-11T01:52:12.971Z,53.37
2017-08-11T01:53:13.011Z,53.66
2017-08-11T01:55:06.044Z,53.37
2017-08-11T01:56:06.003Z,53.47
2017-08-11T01:57:58.971Z,53.56
2017-08-11T01:58:59.011Z,53.56
2017-08-11T02:00:51.995Z,53.47
2017-08-11T02:01:52.003Z,53.56
2017-08-11T02:03:54.979Z,53.47
2017-08-11T02:04:55.019Z,53.37
2017-08-11T02:06:48.083Z,53.56
2017-08-11T02:07:48.027Z,53.37
2017-08-11T02:09:41.515Z,53.47
2017-08-11T02:10:41.515Z,53.56
2017-08-11T02:12:34.478Z,53.47
2017-08-11T02:13:34.515Z,53.08
2017-08-11T02:15:27.483Z,53.37
2017-08-11T02:16:27.508Z,53.37
2017-08-11T02:18:20.484Z,53.27
2017-08-11T02:19:20.508Z,53.08
2017-08-11T02:21:13.516Z,53.75
2017-08-11T02:22:13.500Z,53.66
2017-08-11T02:24:06.460Z,53.75
2017-08-11T02:25:06.500Z,53.47
2017-08-11T02:26:59.516Z,53.37
2017-08-11T02:27:59.493Z,53.66
2017-08-11T02:29:52.452Z,53.85
2017-08-11T02:30:52.485Z,53.66
2017-08-11T02:32:45.484Z,53.85
2017-08-11T02:33:45.485Z,53.75
2017-08-11T02:35:38.453Z,53.75
2017-08-11T02:36:38.484Z,53.75
2017-08-11T02:38:31.493Z,53.75
2017-08-11T02:39:31.485Z,53.66
2017-08-11T02:41:24.445Z,53.85
2017-08-11T02:42:24.477Z,53.47
2017-08-11T02:44:17.485Z,53.37
2017-08-11T02:45:17.477Z,53.47
2017-08-11T02:47:10.437Z,53.47
2017-08-11T02:48:10.477Z,53.37
2017-08-11T02:50:03.462Z,53.66
2017-08-11T02:51:03.470Z,53.95
2017-08-11T02:52:56.429Z,53.95
2017-08-11T02:53:56.461Z,53.75
2017-08-11T02:55:49.501Z,54.14
2017-08-11T02:56:49.462Z,54.14
2017-08-11T02:58:42.430Z,53.95
2017-08-11T02:59:42.462Z,54.14
2017-08-11T03:01:35.446Z,53.75
2017-08-11T03:02:35.453Z,53.85
2017-08-11T03:04:28.413Z,54.14
2017-08-11T03:05:28.446Z,54.05
2017-08-11T03:07:21.438Z,54.14
2017-08-11T03:08:21.446Z,53.66
2017-08-11T03:10:14.406Z,53.85
2017-08-11T03:11:14.446Z,53.75
2017-08-11T03:13:07.462Z,54.14
2017-08-11T03:14:07.438Z,54.05
2017-08-11T03:16:00.390Z,53.56
2017-08-11T03:17:00.430Z,53.75
2017-08-11T03:18:53.430Z,53.95
2017-08-11T03:19:53.441Z,53.95
2017-08-11T03:21:46.398Z,53.95
2017-08-11T03:22:46.430Z,53.95
2017-08-11T03:24:39.423Z,53.95
2017-08-11T03:25:39.422Z,53.95
2017-08-11T03:27:32.390Z,53.95
2017-08-11T03:28:32.422Z,53.85
2017-08-11T03:30:25.407Z,53.95
2017-08-11T03:31:25.431Z,53.85
2017-08-11T03:33:18.390Z,53.75
2017-08-11T03:34:18.423Z,54.14
2017-08-11T03:36:11.415Z,53.85
2017-08-11T03:37:11.415Z,54.24
2017-08-11T03:39:04.391Z,53.95
2017-08-11T03:40:04.415Z,53.85
2017-08-11T03:41:57.391Z,53.75
2017-08-11T03:42:57.408Z,54.14
2017-08-11T03:44:50.383Z,54.14
2017-08-11T03:45:50.405Z,54.14
2017-08-11T03:47:43.359Z,53.75
2017-08-11T03:48:43.391Z,53.75
2017-08-11T03:50:36.408Z,54.14
2017-08-11T03:51:36.392Z,54.14
2017-08-11T03:53:29.359Z,53.95
2017-08-11T03:54:29.400Z,54.14
2017-08-11T03:56:22.376Z,54.14
2017-08-11T03:57:22.400Z,54.05
2017-08-11T03:59:15.376Z,53.85
2017-08-11T04:00:15.384Z,54.05
2017-08-11T04:02:08.343Z,54.14
2017-08-11T04:03:08.368Z,53.75
2017-08-11T04:05:01.367Z,54.05
2017-08-11T04:06:01.376Z,53.95
2017-08-11T04:07:54.336Z,53.85
2017-08-11T04:08:54.375Z,54.05
2017-08-11T04:10:47.398Z,53.95
2017-08-11T04:11:47.367Z,53.85
2017-08-11T04:13:40.327Z,53.85
2017-08-11T04:14:40.358Z,53.75
2017-08-11T04:16:33.358Z,53.27
2017-08-11T04:17:33.350Z,53.66
2017-08-11T04:19:26.320Z,54.05
2017-08-11T04:20:26.359Z,54.05
2017-08-11T04:22:19.366Z,54.05
2017-08-11T04:23:19.359Z,54.14
2017-08-11T04:25:12.311Z,53.85
2017-08-11T04:26:12.343Z,53.95
2017-08-11T04:28:05.335Z,54.24
2017-08-11T04:29:05.335Z,54.14
2017-08-11T04:30:58.319Z,54.43
2017-08-11T04:31:58.335Z,54.72
2017-08-11T04:33:51.336Z,55.01
2017-08-11T04:34:51.328Z,55.01
2017-08-11T04:36:44.304Z,55.10
2017-08-11T04:37:44.335Z,55.59
2017-08-11T04:39:37.311Z,55.01
2017-08-11T04:40:37.320Z,55.01
2017-08-11T04:42:30.321Z,55.68
2017-08-11T04:43:30.320Z,55.10
2017-08-11T04:45:23.288Z,55.01
2017-08-11T04:46:23.328Z,55.30
2017-08-11T04:48:16.329Z,55.10
2017-08-11T04:49:16.320Z,55.20
2017-08-11T04:51:09.287Z,55.78
2017-08-11T04:52:09.327Z,54.91
2017-08-11T04:54:02.311Z,54.82
2017-08-11T04:55:02.327Z,55.49
2017-08-11T04:56:55.286Z,55.88
2017-08-11T04:57:55.320Z,56.16
2017-08-11T04:59:48.311Z,56.84
2017-08-11T05:00:48.312Z,56.26
2017-08-11T05:02:41.279Z,56.16
2017-08-11T05:03:41.312Z,56.26
2017-08-11T05:05:34.296Z,56.20
2017-08-11T05:06:34.314Z,56.84
2017-08-11T05:08:27.263Z,56.00
2017-08-11T05:09:27.308Z,55.78
2017-08-11T05:11:20.295Z,56.00
2017-08-11T05:12:20.296Z,55.59
2017-08-11T05:14:13.264Z,55.78
2017-08-11T05:15:13.296Z,56.10
2017-08-11T05:17:06.288Z,55.71
2017-08-11T05:18:06.297Z,55.62
2017-08-11T05:19:59.256Z,55.59
2017-08-11T05:20:59.297Z,55.49
2017-08-11T05:22:52.305Z,55.40
2017-08-11T05:23:52.296Z,55.68
2017-08-11T05:25:45.280Z,55.59
2017-08-11T05:26:45.288Z,55.10
2017-08-11T05:28:38.248Z,55.01
2017-08-11T05:29:38.288Z,55.04
2017-08-11T05:31:31.272Z,55.04
2017-08-11T05:32:31.289Z,55.04
2017-08-11T05:34:24.248Z,54.94
2017-08-11T05:35:24.281Z,54.84
2017-08-11T05:37:17.281Z,54.46
2017-08-11T05:38:17.273Z,54.55
2017-08-11T05:40:10.241Z,54.65
2017-08-11T05:41:10.273Z,54.75
2017-08-11T05:43:03.251Z,54.65
2017-08-11T05:44:03.257Z,54.84
2017-08-11T05:45:56.217Z,54.72
2017-08-11T05:46:56.257Z,54.75
2017-08-11T05:48:49.274Z,55.01
2017-08-11T05:49:49.266Z,54.36
2017-08-11T05:51:42.362Z,54.27
2017-08-11T05:52:42.258Z,53.97
2017-08-11T05:54:35.226Z,54.17
2017-08-11T05:55:35.257Z,54.24
2017-08-11T05:57:28.234Z,54.17
2017-08-11T05:58:28.258Z,53.95
2017-08-11T06:00:21.266Z,53.95
2017-08-11T06:01:21.251Z,54.05
2017-08-11T06:03:14.210Z,53.88
2017-08-11T06:04:14.250Z,54.14
2017-08-11T06:06:07.282Z,53.88
2017-08-11T06:07:07.242Z,53.88
2017-08-11T06:09:00.194Z,53.85
2017-08-11T06:10:00.242Z,54.07
2017-08-11T06:11:53.226Z,53.39
2017-08-11T06:12:53.234Z,53.59
2017-08-11T06:14:46.202Z,53.66
2017-08-11T06:15:46.227Z,53.47
2017-08-11T06:17:39.253Z,53.49
2017-08-11T06:18:39.242Z,53.30
2017-08-11T06:20:32.213Z,53.75
2017-08-11T06:21:32.240Z,53.85
2017-08-11T06:23:25.224Z,53.47
2017-08-11T06:24:25.240Z,53.17
2017-08-11T06:26:18.209Z,53.20
2017-08-11T06:27:18.240Z,53.27
2017-08-11T06:29:11.224Z,53.01
2017-08-11T06:30:11.232Z,53.27
2017-08-11T06:32:04.216Z,53.01
2017-08-11T06:33:04.248Z,52.81
2017-08-11T06:34:57.185Z,52.81
2017-08-11T06:35:57.225Z,52.91
2017-08-11T06:37:50.217Z,53.39
2017-08-11T06:38:50.225Z,53.11
2017-08-11T06:40:43.193Z,53.20
2017-08-11T06:41:43.217Z,52.72
2017-08-11T06:43:36.201Z,52.62
2017-08-11T06:44:36.208Z,52.53
2017-08-11T06:46:29.178Z,52.81
2017-08-11T06:47:29.211Z,52.62
2017-08-11T06:49:22.236Z,52.53
2017-08-11T06:50:22.210Z,52.23
2017-08-11T06:52:15.201Z,52.23
2017-08-11T06:53:15.203Z,52.14
2017-08-11T06:55:08.161Z,51.85
2017-08-11T06:56:08.193Z,51.85
2017-08-11T06:58:01.186Z,51.85
2017-08-11T06:59:01.194Z,51.65
2017-08-11T07:00:54.146Z,51.75
2017-08-11T07:01:54.185Z,51.65
2017-08-11T07:03:47.177Z,51.95
2017-08-11T07:04:47.180Z,52.14
2017-08-11T07:06:40.147Z,52.04
2017-08-11T07:07:40.178Z,52.04
2017-08-11T07:09:33.186Z,51.95
2017-08-11T07:10:33.170Z,51.95
2017-08-11T07:12:26.138Z,52.23
2017-08-11T07:13:26.170Z,52.23
2017-08-11T07:15:19.202Z,52.14
2017-08-11T07:16:19.162Z,52.04
2017-08-11T07:18:12.146Z,52.04
2017-08-11T07:19:12.155Z,51.95
2017-08-11T07:21:05.155Z,52.04
2017-08-11T07:22:05.147Z,52.23
2017-08-11T07:23:58.133Z,52.04
2017-08-11T07:24:58.147Z,51.85
2017-08-11T07:26:51.123Z,52.23
2017-08-11T07:27:51.147Z,52.14
2017-08-11T07:29:44.339Z,52.04
2017-08-11T07:30:44.147Z,52.43
2017-08-11T07:32:37.107Z,52.23
2017-08-11T07:33:37.140Z,52.23
2017-08-11T07:35:30.132Z,52.04
2017-08-11T07:36:30.140Z,52.23
2017-08-11T07:38:23.140Z,52.04
2017-08-11T07:39:23.133Z,52.43
2017-08-11T07:41:16.124Z,52.04
2017-08-11T07:42:16.132Z,52.43
2017-08-11T07:44:09.117Z,52.14
2017-08-11T07:45:09.124Z,52.33
2017-08-11T07:47:02.117Z,52.33
2017-08-11T07:48:02.125Z,52.43
2017-08-11T07:49:55.101Z,52.23
2017-08-11T07:50:55.116Z,52.14
2017-08-11T07:52:48.108Z,52.33
2017-08-11T07:53:48.116Z,52.23
2017-08-11T07:55:41.085Z,52.43
2017-08-11T07:56:41.118Z,52.14
2017-08-11T07:58:34.121Z,52.23
2017-08-11T07:59:34.121Z,52.43
2017-08-11T08:01:27.070Z,52.33
2017-08-11T08:02:27.107Z,52.04
2017-08-11T08:04:20.079Z,52.23
2017-08-11T08:05:20.102Z,52.14
2017-08-11T08:07:13.094Z,51.85
2017-08-11T08:08:13.103Z,52.14
2017-08-11T08:10:06.111Z,52.14
2017-08-11T08:11:06.103Z,51.95
2017-08-11T08:12:59.064Z,52.14
2017-08-11T08:13:59.095Z,52.14
2017-08-11T08:15:52.080Z,51.56
2017-08-11T08:16:52.087Z,51.85
2017-08-11T08:18:45.055Z,51.75
2017-08-11T08:19:45.087Z,51.75
2017-08-11T08:21:38.071Z,51.75
2017-08-11T08:22:38.095Z,51.65
2017-08-11T08:24:31.039Z,51.75
2017-08-11T08:25:31.080Z,51.75
2017-08-11T08:27:24.094Z,51.85
2017-08-11T08:28:24.080Z,52.04
2017-08-11T08:30:17.055Z,51.95
2017-08-11T08:31:17.080Z,51.95
2017-08-11T08:33:10.056Z,51.56
2017-08-11T08:34:10.090Z,51.27
2017-08-11T08:36:03.089Z,51.37
2017-08-11T08:37:03.064Z,51.46
2017-08-11T08:38:56.024Z,51.39
2017-08-11T08:39:56.056Z,51.37
2017-08-11T08:41:49.032Z,51.49
2017-08-11T08:42:49.053Z,51.37
2017-08-11T08:44:42.013Z,51.29
2017-08-11T08:45:42.045Z,50.91
2017-08-11T08:47:35.037Z,51.59
2017-08-11T08:48:35.037Z,51.49
2017-08-11T08:50:28.022Z,50.91
2017-08-11T08:51:28.029Z,51.01
2017-08-11T08:53:20.997Z,50.81
2017-08-11T08:54:21.026Z,50.81
2017-08-11T08:56:14.010Z,51.07
2017-08-11T08:57:14.025Z,51.20
2017-08-11T08:59:06.993Z,51.10
2017-08-11T09:00:07.026Z,50.91
2017-08-11T09:02:00.010Z,51.01
2017-08-11T09:03:00.010Z,50.91
2017-08-11T09:04:52.978Z,50.71
2017-08-11T09:05:53.033Z,50.91
2017-08-11T09:07:46.004Z,50.91
2017-08-11T09:08:46.010Z,50.81
2017-08-11T09:10:38.970Z,50.81
2017-08-11T09:11:39.002Z,50.71
2017-08-11T09:13:31.996Z,50.52
2017-08-11T09:14:32.002Z,50.91
2017-08-11T09:16:24.983Z,50.71
2017-08-11T09:17:24.991Z,50.71
2017-08-11T09:19:18.016Z,50.81
2017-08-11T09:20:18.000Z,50.23
2017-08-11T09:22:10.960Z,50.81
2017-08-11T09:23:11.016Z,51.01
2017-08-11T09:25:03.985Z,50.71
2017-08-11T09:26:03.992Z,50.71
2017-08-11T09:27:56.977Z,50.71
2017-08-11T09:28:56.991Z,50.81
2017-08-11T09:30:49.976Z,50.81
2017-08-11T09:31:50.008Z,50.91
2017-08-11T09:33:43.040Z,50.91
2017-08-11T09:34:43.039Z,50.52
2017-08-11T09:36:36.039Z,50.13
2017-08-11T09:37:36.031Z,50.13
2017-08-11T09:39:28.992Z,49.75
2017-08-11T09:40:29.023Z,50.13
2017-08-11T09:42:22.016Z,49.95
2017-08-11T09:43:22.024Z,50.13
2017-08-11T09:45:14.976Z,50.33
2017-08-11T09:46:15.019Z,50.43
2017-08-11T09:48:08.002Z,50.81
2017-08-11T09:49:08.009Z,50.71
2017-08-11T09:51:00.965Z,50.71
2017-08-11T09:52:01.006Z,50.33
2017-08-11T09:53:53.997Z,50.33
2017-08-11T09:54:54.013Z,50.13
2017-08-11T09:56:46.997Z,50.33
2017-08-11T09:57:47.013Z,50.23
2017-08-11T09:59:39.972Z,49.85
2017-08-11T10:01:52.980Z,49.77
2017-08-11T10:02:52.988Z,49.39
2017-08-11T10:04:45.973Z,49.58
2017-08-11T10:05:45.989Z,49.77
2017-08-11T10:07:38.946Z,49.49
2017-08-11T10:08:38.987Z,49.49
2017-08-11T10:10:31.986Z,49.29
2017-08-11T10:11:31.991Z,49.19
2017-08-11T10:13:24.951Z,49.49
2017-08-11T10:14:24.991Z,49.39
2017-08-11T10:16:18.033Z,49.27
2017-08-11T10:17:17.991Z,49.07
2017-08-11T10:19:10.951Z,49.46
2017-08-11T10:20:10.991Z,49.46
2017-08-11T10:22:03.998Z,49.37
2017-08-11T10:23:03.991Z,49.17
2017-08-11T10:24:56.952Z,49.46
2017-08-11T10:25:56.993Z,49.27
2017-08-11T10:27:49.975Z,49.27
2017-08-11T10:28:49.977Z,49.46
2017-08-11T10:30:42.945Z,49.85
2017-08-11T10:31:42.980Z,50.23
2017-08-11T10:33:35.967Z,49.46
2017-08-11T10:34:35.966Z,49.19
2017-08-11T10:36:28.918Z,49.29
2017-08-11T10:37:28.958Z,49.10
2017-08-11T10:39:21.950Z,49.39
2017-08-11T10:40:21.950Z,49.39
2017-08-11T10:42:14.902Z,49.29
2017-08-11T10:43:14.943Z,49.39
2017-08-11T10:45:07.927Z,49.55
2017-08-11T10:46:07.935Z,49.46
2017-08-11T10:48:00.904Z,49.65
2017-08-11T10:49:00.935Z,49.46
2017-08-11T10:50:53.922Z,49.55
2017-08-11T10:51:53.927Z,49.55
2017-08-11T10:53:46.887Z,49.46
2017-08-11T10:54:46.927Z,49.46
2017-08-11T10:56:39.943Z,49.27
2017-08-11T10:57:39.959Z,49.07
2017-08-11T10:59:32.918Z,49.17
2017-08-11T11:00:32.951Z,49.27
2017-08-11T11:02:25.935Z,49.19
2017-08-11T11:03:25.942Z,49.29
2017-08-11T11:05:18.911Z,49.00
2017-08-11T11:06:18.943Z,49.19
2017-08-11T11:08:11.975Z,49.17
2017-08-11T11:09:11.935Z,49.75
2017-08-11T11:11:04.896Z,49.65
2017-08-11T11:12:04.927Z,49.65
2017-08-11T11:13:57.920Z,49.37
2017-08-11T11:14:57.928Z,49.55
2017-08-11T11:16:50.895Z,49.46
2017-08-11T11:17:51.857Z,49.46
2017-08-11T11:19:43.920Z,49.75
2017-08-11T11:20:43.912Z,49.37
2017-08-11T11:22:36.880Z,49.17
2017-08-11T11:23:36.904Z,49.27
2017-08-11T11:25:29.912Z,49.46
2017-08-11T11:26:29.904Z,49.55
2017-08-11T11:28:22.864Z,49.37
2017-08-11T11:29:22.896Z,49.55
2017-08-11T11:31:15.903Z,49.46
2017-08-11T11:32:15.897Z,49.46
2017-08-11T11:34:08.857Z,49.55
2017-08-11T11:35:08.897Z,49.85
2017-08-11T11:37:01.905Z,49.55
2017-08-11T11:38:01.889Z,49.46
2017-08-11T11:39:54.857Z,49.46
2017-08-11T11:40:54.881Z,49.37
2017-08-11T11:42:47.865Z,49.46
2017-08-11T11:43:47.876Z,49.37
2017-08-11T11:45:40.833Z,49.46
2017-08-11T11:46:40.873Z,49.37
2017-08-11T11:48:33.881Z,49.27
2017-08-11T11:49:33.866Z,49.17
2017-08-11T11:51:26.826Z,48.90
2017-08-11T11:52:26.866Z,48.49
2017-08-11T11:54:19.898Z,48.81
2017-08-11T11:55:19.905Z,48.23
2017-08-11T11:57:12.866Z,47.94
2017-08-11T11:58:12.906Z,48.03
2017-08-11T12:00:05.914Z,47.94
2017-08-11T12:01:05.899Z,47.94
2017-08-11T12:02:58.858Z,48.01
2017-08-11T12:03:58.891Z,47.63
2017-08-11T12:05:51.915Z,47.91
2017-08-11T12:06:51.899Z,47.72
2017-08-11T12:08:44.858Z,47.05
2017-08-11T12:09:44.890Z,47.24
2017-08-11T12:11:37.930Z,47.24
2017-08-11T12:12:37.906Z,47.81
2017-08-11T12:14:30.850Z,47.65
2017-08-11T12:15:30.883Z,47.55
2017-08-11T12:17:23.868Z,47.74
2017-08-11T12:18:23.875Z,47.81
2017-08-11T12:20:16.851Z,47.84
2017-08-11T12:21:16.875Z,47.81
2017-08-11T12:23:09.868Z,47.81
2017-08-11T12:24:09.875Z,47.53
2017-08-11T12:26:02.843Z,48.01
2017-08-11T12:27:02.867Z,47.91
2017-08-11T12:28:55.883Z,47.63
2017-08-11T12:29:55.868Z,47.63
2017-08-11T12:31:48.828Z,47.53
2017-08-11T12:32:48.868Z,47.63
2017-08-11T12:34:41.867Z,47.53
2017-08-11T12:35:41.883Z,47.53
2017-08-11T12:37:34.836Z,47.63
2017-08-11T12:38:34.868Z,47.53
2017-08-11T12:40:27.883Z,47.53
2017-08-11T12:41:27.863Z,47.63
2017-08-11T12:43:20.820Z,48.01
2017-08-11T12:44:20.860Z,47.91
2017-08-11T12:46:13.924Z,47.81
2017-08-11T12:47:13.852Z,48.01
2017-08-11T12:49:06.812Z,48.01
2017-08-11T12:50:06.852Z,47.91
2017-08-11T12:51:59.860Z,47.72
2017-08-11T12:52:59.844Z,47.63
2017-08-11T12:54:52.796Z,47.63
2017-08-11T12:55:52.838Z,47.63
2017-08-11T12:57:45.844Z,47.14
2017-08-11T12:58:45.828Z,47.14
2017-08-11T13:00:38.796Z,47.89
2017-08-11T13:01:38.821Z,47.33
2017-08-11T13:03:31.806Z,47.72
2017-08-11T13:04:31.805Z,47.60
2017-08-11T13:06:24.781Z,47.60
2017-08-11T13:07:24.805Z,47.60
2017-08-11T13:09:17.781Z,47.50
2017-08-11T13:10:17.797Z,47.50
2017-08-11T13:12:10.781Z,47.50
2017-08-11T13:13:10.797Z,47.50
2017-08-11T13:15:41.786Z,47.50
2017-08-11T13:16:41.813Z,47.50
2017-08-11T13:18:34.831Z,47.80
2017-08-11T13:19:34.807Z,47.70
2017-08-11T13:21:27.782Z,47.70
2017-08-11T13:22:27.798Z,47.99
2017-08-11T13:24:20.797Z,47.89
2017-08-11T13:25:20.797Z,47.80
2017-08-11T13:27:13.798Z,47.89
2017-08-11T13:28:13.797Z,47.99
2017-08-11T13:30:06.758Z,47.89
2017-08-11T13:31:06.790Z,47.89
2017-08-11T13:32:59.806Z,47.99
2017-08-11T13:33:59.798Z,47.89
2017-08-11T13:35:52.758Z,48.08
2017-08-11T13:36:52.798Z,47.80
2017-08-11T13:38:45.790Z,48.37
2017-08-11T13:39:45.790Z,48.28
2017-08-11T13:41:38.742Z,48.18
2017-08-11T13:42:38.782Z,47.89
2017-08-11T13:44:31.766Z,48.28
2017-08-11T13:45:31.774Z,48.37
2017-08-11T13:47:24.758Z,48.28
2017-08-11T13:48:24.799Z,48.37
2017-08-11T13:50:17.793Z,48.18
2017-08-11T13:51:17.799Z,48.18
2017-08-11T13:53:10.759Z,48.18
2017-08-11T13:54:10.790Z,48.18
2017-08-11T13:56:03.833Z,48.28
2017-08-11T13:57:03.791Z,48.28
2017-08-11T13:58:56.759Z,48.28
2017-08-11T13:59:56.782Z,48.66
2017-08-11T14:02:03.839Z,48.76
2017-08-11T14:02:49.778Z,48.66
2017-08-11T14:04:42.736Z,48.66
2017-08-11T14:05:42.777Z,48.66
2017-08-11T14:07:35.759Z,48.66
2017-08-11T14:08:35.768Z,48.66
2017-08-11T14:10:28.736Z,48.37
2017-08-11T14:11:28.767Z,48.37
2017-08-11T14:13:21.784Z,48.47
2017-08-11T14:14:21.768Z,48.47
2017-08-11T14:16:14.727Z,48.28
2017-08-11T14:17:14.760Z,47.89
2017-08-11T14:19:07.760Z,48.08
2017-08-11T14:20:07.752Z,48.28
2017-08-11T14:22:00.720Z,47.80
2017-08-11T14:23:00.752Z,48.18
2017-08-11T14:24:53.736Z,48.18
2017-08-11T14:25:53.744Z,48.28
2017-08-11T14:27:46.752Z,48.37
2017-08-11T14:28:46.752Z,47.89
2017-08-11T14:30:39.768Z,48.47
2017-08-11T14:31:39.752Z,48.57
2017-08-11T14:33:32.714Z,48.76
2017-08-11T14:34:32.745Z,48.66
2017-08-11T14:36:25.752Z,48.66
2017-08-11T14:37:25.737Z,48.66
2017-08-11T14:39:18.704Z,48.37
2017-08-11T14:40:18.736Z,48.28
2017-08-11T14:42:11.728Z,48.28
2017-08-11T14:43:11.729Z,48.28
2017-08-11T14:45:04.689Z,48.37
2017-08-11T14:46:04.741Z,47.99
2017-08-11T14:47:57.707Z,47.80
2017-08-11T14:48:57.737Z,47.80
2017-08-11T14:50:50.715Z,48.28
2017-08-11T14:51:50.721Z,48.76
2017-08-11T14:53:43.720Z,48.79
2017-08-11T14:54:43.721Z,48.59
2017-08-11T14:56:36.681Z,48.47
2017-08-11T14:57:36.714Z,48.28
2017-08-11T14:59:29.705Z,48.28
2017-08-11T15:00:29.722Z,48.18
2017-08-11T15:02:22.729Z,48.28
2017-08-11T15:03:22.714Z,48.47
2017-08-11T15:05:15.674Z,48.37
2017-08-11T15:06:15.705Z,48.28
2017-08-11T15:08:08.722Z,48.28
2017-08-11T15:09:08.714Z,48.37
2017-08-11T15:11:01.666Z,48.57
2017-08-11T15:12:01.706Z,48.37
2017-08-11T15:13:54.690Z,48.66
2017-08-11T15:14:54.698Z,48.76
2017-08-11T15:16:47.650Z,48.66
2017-08-11T15:17:47.698Z,48.47
2017-08-11T15:19:40.706Z,48.28
2017-08-11T15:20:40.690Z,48.28
2017-08-11T15:22:33.650Z,48.57
2017-08-11T15:23:33.706Z,48.57
2017-08-11T15:25:26.675Z,49.44
2017-08-11T15:26:26.683Z,49.44
2017-08-11T15:28:19.712Z,49.44
2017-08-11T15:29:19.682Z,49.34
2017-08-11T15:31:12.643Z,49.05
2017-08-11T15:32:12.683Z,49.24
2017-08-11T15:34:05.684Z,49.73
2017-08-11T15:35:05.663Z,49.92
2017-08-11T15:36:58.652Z,49.53
2017-08-11T15:37:58.664Z,49.73
2017-08-11T15:39:51.623Z,49.34
2017-08-11T15:40:51.652Z,49.44
2017-08-11T15:42:44.645Z,49.34
2017-08-11T15:43:44.654Z,49.44
2017-08-11T15:45:37.637Z,49.24
2017-08-11T15:46:37.653Z,49.44
2017-08-11T15:48:30.645Z,49.44
2017-08-11T15:49:30.653Z,49.44
2017-08-11T15:51:23.615Z,49.63
2017-08-11T15:52:23.661Z,50.01
2017-08-11T15:54:16.662Z,49.92
2017-08-11T15:55:16.661Z,50.11
2017-08-11T15:57:09.637Z,50.21
2017-08-11T15:58:09.637Z,49.73
2017-08-11T16:00:02.653Z,50.21
2017-08-11T16:01:02.638Z,50.21
2017-08-11T16:02:55.598Z,49.82
2017-08-11T16:03:55.638Z,49.82
2017-08-11T16:05:48.638Z,49.53
2017-08-11T16:06:48.630Z,49.92
2017-08-11T16:08:41.606Z,49.92
2017-08-11T16:09:41.630Z,50.01
2017-08-11T16:11:34.638Z,50.01
2017-08-11T16:12:34.622Z,50.11
2017-08-11T16:14:27.582Z,50.01
2017-08-11T16:15:27.622Z,49.82
2017-08-11T16:17:20.663Z,50.21
2017-08-11T16:18:20.614Z,50.01
2017-08-11T16:20:13.577Z,50.11
2017-08-11T16:21:13.607Z,50.31
2017-08-11T16:23:06.598Z,50.40
2017-08-11T16:24:06.609Z,50.69
2017-08-11T16:25:59.615Z,50.50
2017-08-11T16:26:59.599Z,50.50
2017-08-11T16:28:52.591Z,50.40
2017-08-11T16:29:52.622Z,50.31
2017-08-11T16:31:45.630Z,50.31
2017-08-11T16:32:45.636Z,50.69
2017-08-11T16:34:38.607Z,50.69
2017-08-11T16:35:38.639Z,50.79
2017-08-11T16:37:31.631Z,50.89
2017-08-11T16:38:31.639Z,50.89
2017-08-11T16:40:24.687Z,50.89
2017-08-11T16:41:24.703Z,50.89
2017-08-11T16:43:17.783Z,50.21
2017-08-11T16:44:17.735Z,50.47
2017-08-11T16:46:10.680Z,50.59
2017-08-11T16:47:10.712Z,50.89
2017-08-11T16:49:03.688Z,50.59
2017-08-11T16:50:03.704Z,50.69
2017-08-11T16:51:56.688Z,50.89
2017-08-11T16:52:56.696Z,50.98
2017-08-11T16:54:49.704Z,51.65
2017-08-11T16:55:49.696Z,51.46
2017-08-11T16:57:42.680Z,51.34
2017-08-11T16:58:42.688Z,51.56
2017-08-11T17:00:35.696Z,51.37
2017-08-11T17:01:35.688Z,51.37
2017-08-11T17:03:28.648Z,51.37
2017-08-11T17:04:28.688Z,51.37
2017-08-11T17:06:21.704Z,51.56
2017-08-11T17:07:21.689Z,51.25
2017-08-11T17:09:14.653Z,51.37
2017-08-11T17:10:14.682Z,51.46
2017-08-11T17:12:07.696Z,51.37
2017-08-11T17:13:07.688Z,51.37
2017-08-11T17:15:00.673Z,51.46
2017-08-11T17:16:00.761Z,51.37
2017-08-11T17:17:53.712Z,51.46
2017-08-11T17:18:53.699Z,51.85
2017-08-11T17:20:46.690Z,51.56
2017-08-11T17:21:46.713Z,51.53
2017-08-11T17:23:39.737Z,51.46
2017-08-11T17:24:39.729Z,51.46
2017-08-11T17:26:32.681Z,51.56
2017-08-11T17:27:32.722Z,51.85
2017-08-11T17:29:25.721Z,51.56
2017-08-11T17:30:25.713Z,51.73
2017-08-11T17:32:18.689Z,52.11
2017-08-11T17:33:18.730Z,52.04
2017-08-11T17:35:11.698Z,51.34
2017-08-11T17:36:11.706Z,51.85
2017-08-11T17:38:04.674Z,51.53
2017-08-11T17:39:04.706Z,51.63
2017-08-11T17:40:57.706Z,51.75
2017-08-11T17:41:57.714Z,51.73
2017-08-11T17:43:50.699Z,51.53
2017-08-11T17:44:50.723Z,51.65
2017-08-11T17:46:43.690Z,51.53
2017-08-11T17:47:43.698Z,51.63
2017-08-11T17:49:35.690Z,53.30
2017-08-11T17:50:35.691Z,52.23
2017-08-11T17:52:28.650Z,52.14
2017-08-11T17:53:28.706Z,51.95
2017-08-11T17:55:21.674Z,51.85
2017-08-11T17:56:21.690Z,51.56
2017-08-11T17:58:14.682Z,51.73
2017-08-11T17:59:14.691Z,51.56
2017-08-11T18:01:07.706Z,51.56
2017-08-11T18:02:07.715Z,51.65
2017-08-11T18:04:00.763Z,51.63
2017-08-11T18:05:00.771Z,51.53
2017-08-11T18:06:53.786Z,52.21
2017-08-11T18:07:53.798Z,52.11
2017-08-11T18:09:46.819Z,51.92
2017-08-11T18:10:46.819Z,51.92
2017-08-11T18:12:39.858Z,52.11
2017-08-11T18:13:39.931Z,52.11
2017-08-11T18:15:32.851Z,52.01
2017-08-11T18:16:32.843Z,52.11
2017-08-11T18:18:26.027Z,52.11
2017-08-11T18:19:25.899Z,52.31
2017-08-11T18:21:18.939Z,52.31
2017-08-11T18:22:18.940Z,52.21
2017-08-11T18:24:11.955Z,52.21
2017-08-11T18:25:11.965Z,52.59
2017-08-11T18:27:04.964Z,52.40
2017-08-11T18:28:04.956Z,52.59
2017-08-11T18:29:58.067Z,52.69
2017-08-11T18:30:58.075Z,52.79
2017-08-11T18:32:51.012Z,52.69
2017-08-11T18:33:51.036Z,52.69
2017-08-11T18:35:44.109Z,52.59